Time;durP1;ratioP1;P1;durP2;ratioP2;P2;SDS_P1;SDS_P2;PMS_P1;PMS_P2;Temp;Humidity;BMP_temperature;BMP_pressure;BME280_temperature;BME280_humidity;BME280_pressure;Samples;Min_cycle;Max_cycle;Signal;HPM_P1;HPM_P2
2023/10/30 00:01:33;;;;;;;45.47;34.15;;;7.10;99.90;;;;;;5132165;27;20054;-80
2023/10/30 00:03:59;;;;;;;44.45;31.45;;;7.10;99.90;;;;;;5131341;27;20421;-81
2023/10/30 00:06:24;;;;;;;51.42;35.70;;;7.10;99.90;;;;;;5131911;27;20501;-80
2023/10/30 00:08:50;;;;;;;50.80;33.47;;;7.10;99.90;;;;;;5131308;27;20031;-81
2023/10/30 00:11:16;;;;;;;37.42;27.88;;;7.20;99.90;;;;;;5131511;27;20436;-80
2023/10/30 00:13:42;;;;;;;37.53;26.80;;;7.20;99.90;;;;;;5131532;27;20050;-80
2023/10/30 00:16:11;;;;;;;37.20;27.05;;;7.30;99.90;;;;;;5131161;27;20023;-81
2023/10/30 00:18:41;;;;;;;45.90;30.65;;;7.20;99.90;;;;;;5131480;27;20072;-81
2023/10/30 00:21:08;;;;;;;46.80;31.42;;;7.20;99.90;;;;;;5132086;27;20059;-82
2023/10/30 00:23:34;;;;;;;39.83;27.67;;;7.30;99.90;;;;;;5132125;27;20065;-81
2023/10/30 00:26:00;;;;;;;39.40;27.27;;;7.20;99.90;;;;;;5112912;28;20027;-82
2023/10/30 00:28:28;;;;;;;37.28;26.85;;;7.20;99.90;;;;;;5131766;28;20083;-81
2023/10/30 00:30:54;;;;;;;37.95;25.63;;;7.20;99.90;;;;;;5112984;28;20030;-81
2023/10/30 00:33:20;;;;;;;31.65;22.50;;;7.20;99.90;;;;;;5135969;27;20031;-82
2023/10/30 00:35:46;;;;;;;40.55;27.27;;;7.10;99.90;;;;;;5135462;27;20130;-81
2023/10/30 00:38:11;;;;;;;30.73;22.30;;;7.20;99.90;;;;;;5135795;27;20030;-82
2023/10/30 00:40:37;;;;;;;38.88;27.42;;;7.10;99.90;;;;;;5135874;27;20371;-81
2023/10/30 00:43:04;;;;;;;38.15;27.42;;;7.20;99.90;;;;;;5135067;27;20347;-82
2023/10/30 00:45:30;;;;;;;40.60;27.83;;;7.10;99.90;;;;;;5135941;27;20020;-81
2023/10/30 00:47:56;;;;;;;29.10;21.30;;;7.00;99.90;;;;;;5136504;27;20029;-81
2023/10/30 00:50:21;;;;;;;42.92;29.23;;;7.00;99.90;;;;;;5136531;27;20051;-82
2023/10/30 00:52:47;;;;;;;32.03;25.60;;;7.00;99.90;;;;;;5135298;27;20390;-82
2023/10/30 00:55:13;;;;;;;32.17;25.40;;;6.90;99.90;;;;;;5136510;27;20424;-81
2023/10/30 00:57:39;;;;;;;44.58;30.67;;;6.90;99.90;;;;;;5135275;27;20027;-82
2023/10/30 01:00:05;;;;;;;51.25;37.33;;;6.90;99.90;;;;;;5135105;27;20023;-81
2023/10/30 01:02:31;;;;;;;49.90;34.00;;;6.90;99.90;;;;;;5135238;27;20023;-82
2023/10/30 01:04:58;;;;;;;42.72;32.42;;;6.80;99.90;;;;;;5116221;27;20477;-82
2023/10/30 01:07:24;;;;;;;46.15;33.47;;;6.70;99.90;;;;;;5135450;27;20020;-82
2023/10/30 01:09:50;;;;;;;44.80;33.25;;;6.70;99.90;;;;;;5135167;27;20038;-82
2023/10/30 01:12:16;;;;;;;41.28;30.73;;;6.70;99.90;;;;;;5135241;27;20039;-83
2023/10/30 01:14:42;;;;;;;39.80;28.83;;;6.60;99.90;;;;;;5134903;27;20428;-82
2023/10/30 01:17:07;;;;;;;36.35;27.45;;;6.60;99.90;;;;;;5135233;27;20114;-82
2023/10/30 01:19:33;;;;;;;35.55;27.63;;;6.60;99.90;;;;;;5116561;27;20023;-82
2023/10/30 01:21:59;;;;;;;46.40;30.98;;;6.60;99.90;;;;;;5134619;27;20051;-82
2023/10/30 01:24:26;;;;;;;68.47;49.83;;;6.60;99.90;;;;;;5134700;27;20152;-82
2023/10/30 01:26:51;;;;;;;58.75;42.47;;;6.60;99.90;;;;;;5134300;27;20035;-82
2023/10/30 01:29:17;;;;;;;68.22;49.85;;;6.60;99.90;;;;;;5136001;27;20082;-82
2023/10/30 01:31:43;;;;;;;58.42;40.05;;;6.60;99.90;;;;;;5134785;27;20039;-82
2023/10/30 01:34:08;;;;;;;57.15;42.92;;;6.60;99.90;;;;;;5133924;27;20040;-82
2023/10/30 01:36:34;;;;;;;52.20;38.80;;;6.50;99.90;;;;;;5116080;27;20024;-82
2023/10/30 01:39:00;;;;;;;54.58;39.25;;;6.50;99.90;;;;;;5115396;27;20027;-82
2023/10/30 01:41:26;;;;;;;51.40;37.22;;;6.40;99.90;;;;;;5134592;27;20023;-82
2023/10/30 01:43:52;;;;;;;50.03;36.53;;;6.40;99.90;;;;;;5133510;27;20027;-82
2023/10/30 01:46:17;;;;;;;53.13;35.63;;;6.40;99.90;;;;;;5135029;27;20158;-82
2023/10/30 01:48:44;;;;;;;54.28;37.83;;;6.40;99.90;;;;;;5134713;27;20471;-82
2023/10/30 01:51:11;;;;;;;44.10;32.42;;;6.40;99.90;;;;;;5098103;27;20591;-82
2023/10/30 01:53:38;;;;;;;43.40;31.00;;;6.30;99.90;;;;;;5134164;27;20095;-81
2023/10/30 01:56:05;;;;;;;43.67;30.65;;;6.20;99.90;;;;;;5133851;27;20024;-82
2023/10/30 01:58:31;;;;;;;46.92;33.28;;;6.30;99.90;;;;;;5134414;27;20375;-82
2023/10/30 02:00:57;;;;;;;51.13;34.97;;;6.30;99.90;;;;;;5134277;27;20027;-82
2023/10/30 02:03:23;;;;;;;41.30;31.02;;;6.30;99.90;;;;;;5134277;27;20030;-83
2023/10/30 02:05:51;;;;;;;36.75;27.98;;;6.30;99.90;;;;;;5117421;27;20156;-81
2023/10/30 02:08:17;;;;;;;40.35;29.08;;;6.30;99.90;;;;;;5134044;27;20035;-81
2023/10/30 02:10:43;;;;;;;59.22;36.65;;;6.30;99.90;;;;;;5133577;27;20026;-81
2023/10/30 02:13:10;;;;;;;51.42;34.40;;;6.40;99.90;;;;;;5133667;27;20035;-81
2023/10/30 02:15:35;;;;;;;40.88;29.42;;;6.40;99.90;;;;;;5133775;27;20539;-81
2023/10/30 02:18:01;;;;;;;47.17;33.03;;;6.40;99.90;;;;;;5133419;27;20053;-81
2023/10/30 02:20:27;;;;;;;30.08;24.63;;;6.50;99.90;;;;;;5134337;27;20023;-81
2023/10/30 02:22:53;;;;;;;39.10;28.90;;;6.50;99.90;;;;;;5133312;27;20035;-81
2023/10/30 02:25:22;;;;;;;38.90;27.15;;;6.50;99.90;;;;;;5133909;27;20031;-81
2023/10/30 02:27:49;;;;;;;39.88;28.60;;;6.50;99.90;;;;;;5133924;27;20019;-81
2023/10/30 02:30:14;;;;;;;38.17;27.58;;;6.60;99.90;;;;;;5133140;27;20075;-81
2023/10/30 02:32:42;;;;;;;31.40;24.48;;;6.50;99.90;;;;;;5133729;27;20114;-81
2023/10/30 02:35:17;;;;;;;49.33;32.90;;;6.60;99.90;;;;;;5133037;27;20118;-82
2023/10/30 02:37:44;;;;;;;37.75;28.73;;;6.60;99.90;;;;;;5115296;27;20019;-81
2023/10/30 02:40:10;;;;;;;33.45;25.05;;;6.70;99.90;;;;;;5114824;27;20451;-81
2023/10/30 02:42:37;;;;;;;33.45;22.83;;;6.60;99.90;;;;;;5133579;27;20027;-81
2023/10/30 02:45:06;;;;;;;34.40;26.17;;;6.60;99.90;;;;;;5133228;27;20121;-81
2023/10/30 02:47:33;;;;;;;34.55;25.25;;;6.60;99.90;;;;;;5133764;27;20023;-81
2023/10/30 02:49:59;;;;;;;34.28;24.65;;;6.50;99.90;;;;;;5114127;27;20047;-81
2023/10/30 02:52:24;;;;;;;32.42;23.00;;;6.50;99.90;;;;;;5133542;27;20076;-81
2023/10/30 02:54:50;;;;;;;32.25;23.40;;;6.50;99.90;;;;;;5132917;27;20062;-81
2023/10/30 02:57:16;;;;;;;31.95;23.75;;;6.50;99.90;;;;;;5114687;27;20455;-82
2023/10/30 02:59:42;;;;;;;41.10;26.48;;;6.50;99.90;;;;;;5133743;27;20023;-82
2023/10/30 03:02:08;;;;;;;33.17;23.83;;;6.40;99.90;;;;;;5093875;28;20023;-82
2023/10/30 03:04:34;;;;;;;34.42;26.10;;;6.40;99.90;;;;;;5112297;28;20055;-82
2023/10/30 03:07:00;;;;;;;35.03;25.02;;;6.40;99.90;;;;;;5112075;28;20066;-82
2023/10/30 03:09:32;;;;;;;35.33;24.67;;;6.30;99.90;;;;;;5112853;28;20433;-82
2023/10/30 03:11:58;;;;;;;29.27;22.40;;;6.30;99.90;;;;;;5111687;28;20035;-82
2023/10/30 03:14:24;;;;;;;31.08;22.55;;;6.30;99.90;;;;;;5112405;28;20362;-82
2023/10/30 03:16:50;;;;;;;38.88;24.40;;;6.30;99.90;;;;;;5094014;28;20509;-82
2023/10/30 03:19:16;;;;;;;34.90;24.42;;;6.30;99.90;;;;;;5113140;28;20491;-82
2023/10/30 03:21:42;;;;;;;32.45;23.42;;;6.20;99.90;;;;;;5112270;28;20020;-81
2023/10/30 03:24:09;;;;;;;32.55;24.05;;;6.20;99.90;;;;;;5093535;28;20034;-82
2023/10/30 03:26:35;;;;;;;36.85;26.70;;;6.10;99.90;;;;;;5112698;28;20028;-82
2023/10/30 03:29:00;;;;;;;34.45;24.98;;;6.10;99.90;;;;;;5111394;28;20076;-81
2023/10/30 03:31:27;;;;;;;32.63;25.33;;;6.10;99.90;;;;;;5111665;28;20043;-80
2023/10/30 03:33:53;;;;;;;36.20;26.88;;;6.10;99.90;;;;;;5093986;28;20031;-80
2023/10/30 03:36:23;;;;;;;35.25;28.00;;;6.10;99.90;;;;;;5112244;28;20076;-81
2023/10/30 03:38:52;;;;;;;37.67;28.13;;;6.00;99.90;;;;;;5112184;28;20020;-81
2023/10/30 03:41:19;;;;;;;31.48;24.35;;;6.00;99.90;;;;;;5110901;28;20027;-81
2023/10/30 03:43:44;;;;;;;34.78;26.45;;;6.00;99.90;;;;;;5111431;28;20039;-82
2023/10/30 03:46:11;;;;;;;34.17;24.13;;;6.00;99.90;;;;;;5092792;28;20028;-82
2023/10/30 03:48:37;;;;;;;33.75;25.40;;;6.00;99.90;;;;;;5111717;28;20024;-82
2023/10/30 03:51:03;;;;;;;48.13;31.20;;;6.10;99.90;;;;;;5098814;28;20047;-82
2023/10/30 03:53:30;;;;;;;38.40;27.90;;;6.00;99.90;;;;;;5111533;28;20135;-81
2023/10/30 03:55:55;;;;;;;41.28;30.77;;;5.90;99.90;;;;;;5111781;28;20417;-82
2023/10/30 03:58:21;;;;;;;46.13;30.80;;;5.80;99.90;;;;;;5111167;28;20098;-80
2023/10/30 04:00:47;;;;;;;45.50;29.95;;;5.80;99.90;;;;;;5111820;28;20028;-81
2023/10/30 04:03:13;;;;;;;44.50;29.63;;;5.70;99.90;;;;;;5111266;28;20054;-82
2023/10/30 04:05:39;;;;;;;38.00;28.15;;;5.70;99.90;;;;;;5111090;28;20120;-81
2023/10/30 04:08:05;;;;;;;39.30;27.58;;;5.70;99.90;;;;;;5110626;28;20096;-81
2023/10/30 04:10:31;;;;;;;32.60;24.77;;;5.70;99.90;;;;;;5111281;28;20126;-82
2023/10/30 04:12:57;;;;;;;38.95;26.67;;;5.60;99.90;;;;;;5111324;28;20107;-82
2023/10/30 04:15:22;;;;;;;38.83;27.38;;;5.60;99.90;;;;;;5111128;28;20391;-82
2023/10/30 04:17:48;;;;;;;37.33;26.77;;;5.60;99.90;;;;;;5111199;28;20015;-80
2023/10/30 04:20:15;;;;;;;35.50;25.10;;;5.70;99.90;;;;;;5110921;28;20027;-79
2023/10/30 04:22:41;;;;;;;38.38;28.35;;;5.70;99.90;;;;;;5093042;28;20365;-80
2023/10/30 04:25:08;;;;;;;40.88;29.95;;;5.70;99.90;;;;;;5110636;28;20484;-81
2023/10/30 04:27:33;;;;;;;36.42;27.50;;;5.60;99.90;;;;;;5111010;28;20023;-81
2023/10/30 04:30:00;;;;;;;40.45;29.58;;;5.60;99.90;;;;;;5110858;28;20023;-81
2023/10/30 04:32:26;;;;;;;46.20;32.22;;;5.60;99.90;;;;;;5112274;28;20036;-81
2023/10/30 04:34:52;;;;;;;44.47;29.92;;;5.50;99.90;;;;;;5112422;28;20023;-80
2023/10/30 04:37:22;;;;;;;44.60;32.75;;;5.40;99.90;;;;;;5093225;28;20174;-81
2023/10/30 04:39:48;;;;;;;50.35;34.55;;;5.40;99.90;;;;;;5113542;28;20020;-79
2023/10/30 04:42:14;;;;;;;39.45;29.15;;;5.40;99.90;;;;;;5112767;28;20087;-80
2023/10/30 04:44:39;;;;;;;44.00;29.77;;;5.30;99.90;;;;;;5112805;28;20023;-81
2023/10/30 04:47:07;;;;;;;45.58;32.50;;;5.30;99.90;;;;;;5111126;28;20441;-81
2023/10/30 04:49:35;;;;;;;43.47;29.95;;;5.30;99.90;;;;;;5111318;28;20020;-81
2023/10/30 04:52:02;;;;;;;35.30;26.27;;;5.20;99.90;;;;;;5091897;28;20503;-80
2023/10/30 04:54:28;;;;;;;52.63;34.40;;;5.20;99.90;;;;;;5110865;28;20031;-81
2023/10/30 04:56:54;;;;;;;53.10;31.85;;;5.20;99.90;;;;;;5092505;28;20020;-81
2023/10/30 04:59:20;;;;;;;38.10;28.02;;;5.10;99.90;;;;;;5110588;28;20104;-81
2023/10/30 05:01:45;;;;;;;37.53;27.83;;;5.10;99.90;;;;;;5111202;28;20028;-81
2023/10/30 05:04:11;;;;;;;34.75;26.30;;;5.20;99.90;;;;;;5092359;28;20102;-81
2023/10/30 05:06:37;;;;;;;35.22;26.23;;;5.10;99.90;;;;;;5110549;28;20073;-80
2023/10/30 05:09:03;;;;;;;32.30;23.95;;;5.10;99.90;;;;;;5091926;28;20051;-80
2023/10/30 05:11:29;;;;;;;35.30;25.60;;;5.20;99.90;;;;;;5110764;28;20020;-81
2023/10/30 05:13:55;;;;;;;38.13;27.92;;;5.20;99.90;;;;;;5092439;28;20039;-80
2023/10/30 05:16:21;;;;;;;32.35;23.80;;;5.20;99.90;;;;;;5109850;28;20020;-81
2023/10/30 05:18:47;;;;;;;29.70;22.33;;;5.20;99.90;;;;;;5113681;28;20368;-80
2023/10/30 05:21:12;;;;;;;39.33;27.30;;;5.20;99.90;;;;;;5096203;28;20020;-81
2023/10/30 05:23:38;;;;;;;33.83;24.85;;;5.20;99.90;;;;;;5114491;28;20028;-81
2023/10/30 05:26:04;;;;;;;48.25;31.05;;;5.20;99.90;;;;;;5114185;28;20020;-82
2023/10/30 05:28:30;;;;;;;44.50;29.90;;;5.10;99.90;;;;;;5128851;28;20028;-81
2023/10/30 05:30:56;;;;;;;56.92;32.88;;;5.00;99.90;;;;;;5114622;28;20043;-81
2023/10/30 05:33:22;;;;;;;55.88;30.73;;;4.90;99.90;;;;;;5118042;28;20031;-81
2023/10/30 05:35:52;;;;;;;51.80;31.95;;;4.80;99.90;;;;;;5115873;28;20106;-81
2023/10/30 05:38:18;;;;;;;42.10;29.15;;;4.90;99.90;;;;;;5095533;28;20110;-81
2023/10/30 05:40:45;;;;;;;34.78;26.55;;;4.80;99.90;;;;;;5114041;28;20111;-81
2023/10/30 05:43:11;;;;;;;41.72;29.05;;;4.80;99.90;;;;;;5113867;28;20047;-81
2023/10/30 05:45:37;;;;;;;36.38;26.30;;;4.80;99.90;;;;;;5113960;28;20502;-81
2023/10/30 05:48:03;;;;;;;35.45;24.60;;;4.80;99.90;;;;;;5113877;28;20027;-80
2023/10/30 05:50:29;;;;;;;36.90;25.20;;;4.80;99.90;;;;;;5114075;28;20488;-80
2023/10/30 05:52:54;;;;;;;29.48;21.60;;;4.90;99.90;;;;;;5113700;28;20173;-80
2023/10/30 05:55:20;;;;;;;29.60;21.10;;;4.90;99.90;;;;;;5113344;28;20111;-80
2023/10/30 05:57:46;;;;;;;37.75;26.45;;;4.90;99.90;;;;;;5113806;28;20031;-79
2023/10/30 06:00:13;;;;;;;34.90;25.17;;;4.80;99.90;;;;;;5113664;28;20488;-79
2023/10/30 06:02:39;;;;;;;32.33;21.73;;;4.90;99.90;;;;;;5095226;28;20035;-80
2023/10/30 06:05:07;;;;;;;31.58;22.63;;;4.70;99.90;;;;;;5113619;28;20027;-80
2023/10/30 06:07:34;;;;;;;30.95;22.27;;;4.70;99.90;;;;;;5113578;28;20020;-80
2023/10/30 06:10:01;;;;;;;43.33;26.75;;;4.70;99.90;;;;;;5113397;28;20028;-80
2023/10/30 06:12:26;;;;;;;36.85;24.13;;;4.80;99.90;;;;;;5112416;28;20468;-81
2023/10/30 06:14:52;;;;;;;27.83;19.88;;;4.70;99.90;;;;;;5113781;28;20024;-81
2023/10/30 06:17:18;;;;;;;30.42;20.88;;;4.70;99.90;;;;;;5094672;28;20067;-81
2023/10/30 06:19:43;;;;;;;31.20;21.27;;;4.70;99.90;;;;;;5113416;28;20034;-80
2023/10/30 06:22:09;;;;;;;27.38;19.90;;;4.70;99.90;;;;;;5112891;28;20023;-80
2023/10/30 06:24:35;;;;;;;25.90;19.30;;;4.80;99.90;;;;;;5113181;28;20028;-80
2023/10/30 06:27:00;;;;;;;30.73;21.00;;;4.80;99.90;;;;;;5113500;28;20068;-81
2023/10/30 06:29:26;;;;;;;32.13;22.63;;;4.80;99.90;;;;;;5111682;28;20605;-81
2023/10/30 06:31:52;;;;;;;30.90;19.85;;;4.70;99.90;;;;;;5094880;28;20078;-80
2023/10/30 06:34:18;;;;;;;40.67;22.52;;;4.70;99.90;;;;;;5112506;28;20028;-81
2023/10/30 06:36:46;;;;;;;34.33;21.17;;;4.70;99.90;;;;;;5094738;28;20103;-80
2023/10/30 06:39:13;;;;;;;32.45;21.75;;;4.70;99.90;;;;;;5112537;28;20020;-80
2023/10/30 06:41:39;;;;;;;31.30;21.60;;;4.70;99.90;;;;;;5113485;28;20135;-80
2023/10/30 06:44:04;;;;;;;33.55;23.25;;;4.60;99.90;;;;;;5094529;28;20175;-80
2023/10/30 06:46:30;;;;;;;26.95;19.45;;;4.60;99.90;;;;;;5112342;28;20123;-81
2023/10/30 06:48:56;;;;;;;37.95;24.02;;;4.50;99.90;;;;;;5112596;28;20519;-81
2023/10/30 06:51:21;;;;;;;55.10;25.45;;;4.60;99.90;;;;;;5112558;28;20048;-81
2023/10/30 06:53:47;;;;;;;95.22;29.80;;;4.50;99.90;;;;;;5112815;28;20031;-81
2023/10/30 06:56:13;;;;;;;40.67;23.38;;;4.50;99.90;;;;;;5112097;28;20028;-81
2023/10/30 06:58:38;;;;;;;34.05;21.23;;;4.40;99.90;;;;;;5112850;28;20024;-81
2023/10/30 07:01:04;;;;;;;31.27;20.65;;;4.40;99.90;;;;;;5113065;28;20024;-81
2023/10/30 07:03:32;;;;;;;31.48;21.35;;;4.50;99.90;;;;;;5112589;28;20092;-81
2023/10/30 07:05:58;;;;;;;26.63;19.50;;;4.50;99.90;;;;;;5112391;28;20122;-80
2023/10/30 07:08:23;;;;;;;32.55;22.45;;;4.40;99.90;;;;;;5112390;28;20512;-80
2023/10/30 07:10:49;;;;;;;32.08;21.75;;;4.40;99.90;;;;;;5113458;28;20031;-81
2023/10/30 07:13:15;;;;;;;24.63;17.35;;;4.40;99.90;;;;;;5111880;28;20047;-81
2023/10/30 07:15:41;;;;;;;31.15;20.10;;;4.40;99.90;;;;;;5112350;28;20059;-80
2023/10/30 07:18:06;;;;;;;34.75;21.02;;;4.40;99.90;;;;;;5112244;28;20437;-80
2023/10/30 07:20:32;;;;;;;25.30;18.65;;;4.40;99.90;;;;;;5093339;28;20405;-81
2023/10/30 07:22:58;;;;;;;29.48;19.27;;;4.40;99.90;;;;;;5112177;28;20027;-80
2023/10/30 07:25:23;;;;;;;27.58;19.05;;;4.40;99.90;;;;;;5111861;28;20102;-80
2023/10/30 07:27:49;;;;;;;38.08;21.10;;;4.40;99.90;;;;;;5111975;28;20064;-80
2023/10/30 07:30:15;;;;;;;33.78;21.38;;;4.40;99.90;;;;;;5093361;28;20106;-81
2023/10/30 07:32:41;;;;;;;40.67;25.95;;;4.50;99.90;;;;;;5112082;28;20035;-81
2023/10/30 07:35:07;;;;;;;25.27;17.75;;;4.40;99.90;;;;;;5117104;27;20024;-80
2023/10/30 07:37:36;;;;;;;28.02;19.38;;;4.50;99.90;;;;;;5132335;27;20023;-80
2023/10/30 07:40:03;;;;;;;26.02;18.48;;;4.50;99.90;;;;;;5133228;27;20035;-80
2023/10/30 07:42:29;;;;;;;24.40;18.25;;;4.50;99.90;;;;;;5132214;27;20035;-80
2023/10/30 07:44:55;;;;;;;29.67;19.98;;;4.60;99.90;;;;;;5132525;27;20049;-78
2023/10/30 07:47:21;;;;;;;24.52;17.08;;;4.60;99.90;;;;;;5131907;27;20067;-79
2023/10/30 07:49:47;;;;;;;26.60;18.90;;;4.60;99.90;;;;;;5132699;27;20070;-79
2023/10/30 07:52:13;;;;;;;33.42;23.02;;;4.60;99.90;;;;;;5132001;27;20074;-80
2023/10/30 07:54:39;;;;;;;34.17;22.33;;;4.60;99.90;;;;;;5132152;27;20038;-80
2023/10/30 07:57:05;;;;;;;26.00;19.15;;;4.60;99.90;;;;;;5113535;27;20031;-80
2023/10/30 07:59:32;;;;;;;31.20;19.40;;;4.70;99.90;;;;;;5131897;27;20038;-79
2023/10/30 08:01:58;;;;;;;26.52;19.40;;;4.80;99.90;;;;;;5113690;27;20515;-79
2023/10/30 08:04:24;;;;;;;23.67;17.45;;;4.90;99.90;;;;;;5113020;27;20061;-79
2023/10/30 08:06:49;;;;;;;29.98;19.27;;;5.00;99.90;;;;;;5131652;27;20388;-81
2023/10/30 08:09:16;;;;;;;25.40;19.35;;;5.00;99.90;;;;;;5131332;27;20032;-80
2023/10/30 08:11:42;;;;;;;27.52;19.33;;;5.10;99.90;;;;;;5131768;27;20507;-79
2023/10/30 08:14:08;;;;;;;30.95;20.92;;;5.20;99.90;;;;;;5131633;27;20376;-79
2023/10/30 08:16:34;;;;;;;28.73;19.77;;;5.30;99.90;;;;;;5130918;27;20019;-80
2023/10/30 08:19:01;;;;;;;28.50;19.65;;;5.30;99.90;;;;;;5131373;27;20028;-81
2023/10/30 08:21:26;;;;;;;25.35;18.38;;;5.30;99.90;;;;;;5131030;27;20401;-80
2023/10/30 08:23:52;;;;;;;25.92;19.33;;;5.30;99.90;;;;;;5131974;27;20035;-80
2023/10/30 08:26:18;;;;;;;25.27;18.08;;;5.40;99.90;;;;;;5131375;27;20043;-80
2023/10/30 08:28:45;;;;;;;26.95;19.73;;;5.50;99.90;;;;;;5131510;28;20023;-80
2023/10/30 08:31:11;;;;;;;22.48;17.77;;;5.60;99.90;;;;;;5131718;28;20023;-81
2023/10/30 08:33:38;;;;;;;20.75;16.58;;;5.60;99.90;;;;;;5130841;28;20049;-81
2023/10/30 08:36:04;;;;;;;24.45;17.63;;;5.80;99.90;;;;;;5131484;28;20475;-80
2023/10/30 08:38:30;;;;;;;22.45;15.80;;;5.90;99.90;;;;;;5130856;28;20098;-79
2023/10/30 08:40:56;;;;;;;22.83;16.08;;;5.90;99.90;;;;;;5131489;28;20500;-80
2023/10/30 08:43:22;;;;;;;21.20;16.02;;;6.00;99.90;;;;;;5112540;28;20031;-80
2023/10/30 08:45:47;;;;;;;21.20;16.10;;;6.10;99.90;;;;;;5132253;28;20139;-81
2023/10/30 08:48:13;;;;;;;21.88;16.80;;;6.30;99.90;;;;;;5132924;28;20028;-81
2023/10/30 08:50:40;;;;;;;23.42;16.98;;;6.30;99.90;;;;;;5133319;28;20051;-81
2023/10/30 08:53:07;;;;;;;21.05;16.27;;;6.40;99.90;;;;;;5099604;28;20040;-80
2023/10/30 08:55:32;;;;;;;20.52;16.08;;;6.40;99.90;;;;;;5099716;28;20023;-80
2023/10/30 08:57:58;;;;;;;20.63;15.52;;;6.60;99.90;;;;;;5117329;28;20047;-80
2023/10/30 09:00:24;;;;;;;20.20;15.85;;;6.70;99.90;;;;;;5114473;28;20046;-81
2023/10/30 09:02:49;;;;;;;25.52;17.95;;;6.70;99.90;;;;;;5115020;28;20035;-81
2023/10/30 09:05:15;;;;;;;21.58;16.90;;;6.80;99.90;;;;;;5114954;28;20496;-81
2023/10/30 09:07:43;;;;;;;21.70;16.25;;;6.90;99.90;;;;;;5114083;28;20023;-81
2023/10/30 09:10:09;;;;;;;19.48;14.70;;;7.00;99.90;;;;;;5114878;28;20117;-81
2023/10/30 09:12:36;;;;;;;18.05;13.90;;;7.10;99.90;;;;;;5114366;28;20369;-81
2023/10/30 09:15:02;;;;;;;20.67;15.55;;;7.20;99.90;;;;;;5114217;28;20047;-81
2023/10/30 09:17:27;;;;;;;23.80;17.55;;;7.30;99.90;;;;;;5114445;28;20063;-81
2023/10/30 09:19:53;;;;;;;20.23;15.35;;;7.40;99.90;;;;;;5096395;28;20024;-80
2023/10/30 09:22:19;;;;;;;24.80;18.35;;;7.40;99.90;;;;;;5114319;28;20032;-81
2023/10/30 09:24:44;;;;;;;23.60;17.15;;;7.50;99.90;;;;;;5114203;28;20101;-81
2023/10/30 09:27:10;;;;;;;19.52;15.20;;;7.60;99.90;;;;;;5120385;27;20023;-80
2023/10/30 09:29:36;;;;;;;16.90;13.60;;;7.70;99.90;;;;;;5133722;27;20650;-81
2023/10/30 09:32:03;;;;;;;18.73;14.88;;;7.80;99.90;;;;;;5135035;27;20491;-81
2023/10/30 09:34:30;;;;;;;19.13;14.43;;;7.80;99.90;;;;;;5134540;27;20142;-81
2023/10/30 09:36:55;;;;;;;17.50;12.85;;;7.90;99.90;;;;;;5134908;27;20065;-80
2023/10/30 09:39:21;;;;;;;14.93;11.35;;;8.00;99.90;;;;;;5134553;27;20447;-80
2023/10/30 09:41:47;;;;;;;15.88;10.93;;;8.10;99.90;;;;;;5134895;27;20479;-81
2023/10/30 09:44:13;;;;;;;14.02;11.00;;;8.10;99.90;;;;;;5134758;27;20046;-81
2023/10/30 09:46:39;;;;;;;15.57;11.77;;;8.20;99.90;;;;;;5134037;27;20054;-81
2023/10/30 09:49:13;;;;;;;16.52;11.82;;;8.40;99.90;;;;;;5116414;27;20027;-80
2023/10/30 09:51:42;;;;;;;12.35;9.95;;;8.40;99.90;;;;;;5115634;27;20142;-81
2023/10/30 09:54:08;;;;;;;12.10;8.88;;;8.50;99.90;;;;;;5134793;27;20042;-81
2023/10/30 09:56:37;;;;;;;10.60;8.10;;;8.50;99.90;;;;;;5134000;27;20479;-81
2023/10/30 09:59:03;;;;;;;9.25;7.53;;;8.60;99.90;;;;;;5134392;27;20068;-81
2023/10/30 10:01:29;;;;;;;9.82;7.78;;;8.60;99.90;;;;;;5133419;27;20038;-79
2023/10/30 10:03:55;;;;;;;11.60;8.25;;;8.70;99.90;;;;;;5133186;27;20031;-80
2023/10/30 10:06:21;;;;;;;11.70;9.45;;;8.70;99.90;;;;;;5133424;27;20041;-81
2023/10/30 10:08:47;;;;;;;10.32;8.52;;;8.70;99.90;;;;;;5133854;27;20027;-81
2023/10/30 10:11:12;;;;;;;10.73;8.40;;;8.70;99.90;;;;;;5133815;27;20038;-81
2023/10/30 10:13:40;;;;;;;12.25;9.35;;;8.90;99.90;;;;;;5133672;27;20031;-81
2023/10/30 10:16:06;;;;;;;10.70;8.73;;;8.90;99.90;;;;;;5124773;27;20110;-81
2023/10/30 10:18:35;;;;;;;13.07;9.45;;;8.90;99.90;;;;;;5112719;28;20102;-82
2023/10/30 10:21:03;;;;;;;12.38;10.02;;;8.90;99.90;;;;;;5113493;28;20030;-81
2023/10/30 10:23:32;;;;;;;14.20;11.35;;;9.00;99.90;;;;;;5113135;28;20027;-82
2023/10/30 10:26:04;;;;;;;17.55;12.52;;;9.00;99.90;;;;;;5113579;28;20306;-81
2023/10/30 10:28:30;;;;;;;15.93;11.43;;;9.10;99.90;;;;;;5113165;28;20102;-82
2023/10/30 10:30:56;;;;;;;17.13;11.65;;;9.10;99.90;;;;;;5113523;28;20118;-81
2023/10/30 10:33:24;;;;;;;13.35;10.88;;;9.20;99.90;;;;;;5113337;28;20099;-81
2023/10/30 10:35:54;;;;;;;15.38;13.00;;;9.30;99.90;;;;;;5113694;28;20125;-80
2023/10/30 10:38:21;;;;;;;16.10;12.45;;;9.40;99.90;;;;;;5113316;28;20031;-80
2023/10/30 10:40:47;;;;;;;20.77;16.33;;;9.50;99.90;;;;;;5094678;28;20028;-82
2023/10/30 10:43:21;;;;;;;16.98;14.30;;;9.60;99.90;;;;;;5113460;27;20118;-82
2023/10/30 10:45:48;;;;;;;18.70;13.70;;;9.60;99.90;;;;;;5112895;28;20024;-82
2023/10/30 10:48:15;;;;;;;17.30;14.35;;;9.70;99.90;;;;;;5113885;28;20035;-81
2023/10/30 10:50:41;;;;;;;13.68;11.68;;;9.90;99.90;;;;;;5113606;28;20056;-81
2023/10/30 10:53:08;;;;;;;13.73;10.50;;;9.90;99.90;;;;;;5115614;27;20169;-82
2023/10/30 10:55:44;;;;;;;14.82;11.82;;;10.10;99.90;;;;;;5133077;27;20027;-81
2023/10/30 10:58:43;;;;;;;12.25;10.95;;;10.20;99.90;;;;;;5133635;27;20027;-81
2023/10/30 11:01:16;;;;;;;11.20;10.00;;;10.30;99.90;;;;;;5133272;27;20318;-81
2023/10/30 11:03:44;;;;;;;12.20;10.07;;;10.30;99.90;;;;;;5133156;27;20038;-82
2023/10/30 11:06:11;;;;;;;15.77;11.35;;;10.40;99.90;;;;;;5133040;27;20153;-81
2023/10/30 11:08:56;;;;;;;15.30;12.95;;;10.40;99.90;;;;;;5132312;27;20382;-82
2023/10/30 11:11:47;;;;;;;17.60;12.60;;;10.50;99.90;;;;;;5131913;27;20110;-82
2023/10/30 11:14:32;;;;;;;17.17;14.38;;;10.60;99.90;;;;;;5133090;27;20035;-81
2023/10/30 11:17:05;;;;;;;18.30;14.75;;;10.60;99.90;;;;;;5114114;27;20099;-82
2023/10/30 11:19:32;;;;;;;13.07;11.25;;;10.60;99.90;;;;;;5132330;27;20027;-82
2023/10/30 11:22:01;;;;;;;14.20;11.88;;;10.60;99.90;;;;;;5132717;27;20046;-80
2023/10/30 11:24:40;;;;;;;23.88;15.82;;;10.60;99.90;;;;;;5113510;27;20043;-81
2023/10/30 11:27:28;;;;;;;18.42;13.88;;;10.70;99.90;;;;;;5132710;27;20035;-79
2023/10/30 11:29:57;;;;;;;19.10;13.80;;;10.60;99.90;;;;;;5132482;27;20035;-82
2023/10/30 11:32:29;;;;;;;15.77;13.23;;;10.60;99.90;;;;;;5132509;27;20027;-82
2023/10/30 11:34:55;;;;;;;14.35;12.65;;;10.60;99.90;;;;;;5132624;27;20486;-81
2023/10/30 11:37:22;;;;;;;18.90;13.95;;;10.60;99.90;;;;;;5132819;27;20417;-80
2023/10/30 11:39:50;;;;;;;32.13;22.73;;;10.60;99.90;;;;;;5132335;27;20171;-81
2023/10/30 11:42:22;;;;;;;19.88;17.23;;;10.60;99.90;;;;;;5132436;27;20062;-80
2023/10/30 11:44:49;;;;;;;21.60;17.17;;;10.70;99.90;;;;;;5131992;27;20356;-81
2023/10/30 11:47:14;;;;;;;17.67;14.32;;;10.60;99.90;;;;;;5132725;27;20034;-81
2023/10/30 11:49:42;;;;;;;18.65;14.35;;;10.60;99.90;;;;;;5138000;27;20031;-80
2023/10/30 11:52:12;;;;;;;16.35;13.55;;;10.70;99.90;;;;;;5147656;27;20031;-81
2023/10/30 11:54:40;;;;;;;16.85;13.77;;;10.70;99.90;;;;;;5131908;27;20109;-84
2023/10/30 11:57:07;;;;;;;18.13;13.20;;;10.80;99.90;;;;;;5114038;27;20043;-83
2023/10/30 11:59:33;;;;;;;16.13;12.80;;;10.80;99.90;;;;;;5131840;27;20079;-82
2023/10/30 12:02:01;;;;;;;13.73;12.05;;;10.90;99.90;;;;;;5132404;27;20030;-82
2023/10/30 12:04:27;;;;;;;16.52;12.25;;;10.90;99.90;;;;;;5131700;27;20023;-82
2023/10/30 12:06:56;;;;;;;17.80;14.63;;;10.90;99.90;;;;;;5132541;27;20046;-82
2023/10/30 12:09:23;;;;;;;20.35;15.07;;;10.90;99.90;;;;;;5132097;27;20027;-80
2023/10/30 12:11:49;;;;;;;18.52;14.95;;;10.90;99.90;;;;;;5131368;27;20110;-81
2023/10/30 12:14:18;;;;;;;23.55;17.35;;;10.90;99.90;;;;;;5132462;27;20085;-82
2023/10/30 12:16:51;;;;;;;17.98;13.05;;;10.90;99.90;;;;;;5131413;27;20047;-81
2023/10/30 12:19:20;;;;;;;14.65;11.95;;;10.80;99.90;;;;;;5131913;27;20023;-82
2023/10/30 12:21:50;;;;;;;13.70;11.57;;;10.80;99.90;;;;;;5131364;27;20023;-81
2023/10/30 12:24:16;;;;;;;14.32;11.52;;;10.80;99.90;;;;;;5131713;27;20536;-80
2023/10/30 12:26:43;;;;;;;14.38;11.18;;;10.70;99.90;;;;;;5130898;27;20031;-80
2023/10/30 12:29:20;;;;;;;19.38;13.48;;;10.80;99.90;;;;;;5132765;27;20122;-88
2023/10/30 12:32:02;;;;;;;26.42;15.90;;;10.70;99.90;;;;;;5115209;28;20494;-90
2023/10/30 12:34:31;;;;;;;22.02;14.65;;;10.80;99.90;;;;;;5134011;28;20143;-88